createdAt,value
2023-03-22T00:00:15.100Z,11.19
2023-03-22T00:02:43.259Z,11.39
2023-03-22T00:05:11.452Z,11.44
2023-03-22T00:07:40.953Z,11.50
2023-03-22T00:10:10.660Z,11.29
2023-03-22T00:12:38.831Z,11.38
2023-03-22T00:15:09.392Z,11.20
2023-03-22T00:17:38.894Z,11.34
2023-03-22T00:20:09.149Z,11.39
2023-03-22T00:22:37.523Z,11.43
2023-03-22T00:25:07.715Z,11.49
2023-03-22T00:27:36.029Z,11.35
2023-03-22T00:30:04.906Z,11.22
2023-03-22T00:32:35.839Z,11.16
2023-03-22T00:35:07.269Z,11.26
2023-03-22T00:37:39.708Z,11.26
2023-03-22T00:40:13.069Z,11.16
2023-03-22T00:42:42.875Z,11.02
2023-03-22T00:45:13.195Z,11.05
2023-03-22T00:47:44.548Z,11.06
2023-03-22T00:50:14.184Z,10.99
2023-03-22T00:52:42.448Z,10.99
2023-03-22T00:55:11.258Z,11.02
2023-03-22T00:57:42.316Z,10.93
2023-03-22T01:00:14.520Z,11.09
2023-03-22T01:02:43.602Z,11.22
2023-03-22T01:05:21.942Z,11.21
2023-03-22T01:07:51.690Z,11.20
2023-03-22T01:10:20.322Z,11.22
2023-03-22T01:12:48.996Z,10.96
2023-03-22T01:15:17.362Z,11.04
2023-03-22T01:17:45.703Z,10.95
2023-03-22T01:20:14.547Z,11.05
2023-03-22T01:22:44.720Z,10.94
2023-03-22T01:25:14.110Z,10.93
2023-03-22T01:27:42.306Z,10.89
2023-03-22T01:30:12.675Z,10.98
2023-03-22T01:32:42.726Z,11.01
2023-03-22T01:35:11.608Z,11.06
2023-03-22T01:37:45.566Z,11.00
2023-03-22T01:40:16.318Z,11.01
2023-03-22T01:42:45.766Z,10.87
2023-03-22T01:45:45.778Z,10.80
2023-03-22T01:48:22.975Z,10.90
2023-03-22T01:51:02.945Z,10.74
2023-03-22T01:53:40.311Z,10.78
2023-03-22T01:56:10.687Z,10.73
2023-03-22T01:58:40.658Z,10.64
2023-03-22T02:01:12.111Z,10.56
2023-03-22T02:03:56.462Z,10.64
2023-03-22T02:06:26.928Z,10.60
2023-03-22T02:09:03.353Z,10.54
2023-03-22T02:11:38.456Z,10.53
2023-03-22T02:14:35.503Z,10.55
2023-03-22T02:17:27.578Z,10.67
2023-03-22T02:20:56.106Z,10.76
2023-03-22T02:24:38.017Z,10.66
2023-03-22T02:27:36.823Z,10.62
2023-03-22T02:30:27.557Z,10.52
2023-03-22T02:33:25.450Z,10.45
2023-03-22T02:36:44.296Z,10.55
2023-03-22T02:39:36.137Z,10.42
2023-03-22T02:42:33.009Z,10.38
2023-03-22T02:45:10.574Z,10.40
2023-03-22T02:47:49.794Z,10.45
2023-03-22T02:50:27.343Z,10.49
2023-03-22T02:53:03.330Z,10.53
2023-03-22T02:55:38.631Z,10.45
2023-03-22T02:58:13.238Z,10.32
2023-03-22T03:00:43.520Z,10.27
2023-03-22T03:03:18.129Z,10.26
2023-03-22T03:05:51.620Z,10.30
2023-03-22T03:08:23.652Z,10.36
2023-03-22T03:10:54.832Z,10.42
2023-03-22T03:13:23.081Z,10.46
2023-03-22T03:15:55.184Z,10.23
2023-03-22T03:18:40.584Z,10.35
2023-03-22T03:21:22.081Z,10.35
2023-03-22T03:23:58.836Z,10.34
2023-03-22T03:26:39.847Z,10.35
2023-03-22T03:29:17.240Z,10.31
2023-03-22T03:31:57.249Z,10.31
2023-03-22T03:34:30.616Z,10.34
2023-03-22T03:37:08.137Z,10.16
2023-03-22T03:39:42.666Z,10.20
2023-03-22T03:42:16.637Z,10.17
2023-03-22T03:44:45.271Z,10.14
2023-03-22T03:47:15.298Z,10.15
2023-03-22T03:49:43.488Z,10.18
2023-03-22T03:52:13.281Z,10.20
2023-03-22T03:54:43.471Z,10.27
2023-03-22T03:57:17.769Z,10.23
2023-03-22T03:59:45.910Z,10.23
2023-03-22T04:02:25.664Z,10.19
2023-03-22T04:04:56.191Z,10.22
2023-03-22T04:07:24.364Z,10.13
2023-03-22T04:09:52.708Z,10.13
2023-03-22T04:12:29.648Z,10.15
2023-03-22T04:15:15.500Z,10.09
2023-03-22T04:17:46.899Z,10.00
2023-03-22T04:20:17.093Z,9.98
2023-03-22T04:22:48.328Z,9.96
2023-03-22T04:25:18.120Z,9.98
2023-03-22T04:27:57.381Z,9.91
2023-03-22T04:30:27.444Z,9.98
2023-03-22T04:33:15.258Z,9.96
2023-03-22T04:36:05.539Z,10.00
2023-03-22T04:38:40.819Z,9.86
2023-03-22T04:41:15.480Z,10.00
2023-03-22T04:43:50.968Z,9.97
2023-03-22T04:46:21.270Z,9.91
2023-03-22T04:48:56.732Z,9.96
2023-03-22T04:51:25.783Z,9.94
2023-03-22T04:54:12.722Z,9.95
2023-03-22T04:56:43.224Z,9.94
2023-03-22T04:59:14.397Z,9.92
2023-03-22T05:01:43.442Z,10.08
2023-03-22T05:04:18.488Z,10.16
2023-03-22T05:06:47.774Z,10.13
2023-03-22T05:09:23.692Z,10.28
2023-03-22T05:11:54.040Z,10.23
2023-03-22T05:14:31.139Z,10.16
2023-03-22T05:16:59.692Z,10.07
2023-03-22T05:19:28.030Z,10.09
2023-03-22T05:21:58.330Z,10.08
2023-03-22T05:24:39.778Z,10.08
2023-03-22T05:27:14.098Z,10.13
2023-03-22T05:29:45.342Z,10.16
2023-03-22T05:32:29.338Z,10.15
2023-03-22T05:34:57.704Z,10.26
2023-03-22T05:37:35.565Z,10.21
2023-03-22T05:40:05.753Z,10.22
2023-03-22T05:42:39.589Z,10.30
2023-03-22T05:45:19.086Z,10.18
2023-03-22T05:47:52.342Z,10.23
2023-03-22T05:50:24.428Z,10.27
2023-03-22T05:52:53.287Z,10.30
2023-03-22T05:55:30.208Z,10.29
2023-03-22T05:58:02.743Z,10.21
2023-03-22T06:00:35.660Z,10.26
2023-03-22T06:03:22.351Z,10.32
2023-03-22T06:06:01.936Z,10.26
2023-03-22T06:08:40.380Z,10.43
2023-03-22T06:11:09.578Z,10.34
2023-03-22T06:13:39.114Z,10.36
2023-03-22T06:16:11.255Z,10.43
2023-03-22T06:18:39.989Z,10.50
2023-03-22T06:21:12.089Z,10.50
2023-03-22T06:23:40.321Z,10.50
2023-03-22T06:26:11.350Z,10.65
2023-03-22T06:28:40.299Z,10.47
2023-03-22T06:31:11.559Z,10.56
2023-03-22T06:34:09.408Z,10.69
2023-03-22T06:36:42.268Z,10.74
2023-03-22T06:39:17.140Z,10.82
2023-03-22T06:41:46.746Z,10.86
2023-03-22T06:44:15.808Z,10.84
2023-03-22T06:47:04.259Z,10.79
2023-03-22T06:50:08.478Z,10.92
2023-03-22T06:52:55.405Z,11.01
2023-03-22T06:55:23.978Z,10.97
2023-03-22T06:57:52.333Z,11.10
2023-03-22T07:00:21.029Z,11.04
2023-03-22T07:02:52.696Z,11.21
2023-03-22T07:05:36.200Z,11.02
2023-03-22T07:08:04.577Z,11.26
2023-03-22T07:10:33.906Z,11.18
2023-03-22T07:13:05.455Z,11.00
2023-03-22T07:15:36.634Z,11.00
2023-03-22T07:18:12.043Z,11.02
2023-03-22T07:20:41.690Z,11.12
2023-03-22T07:23:11.372Z,10.96
2023-03-22T07:25:51.538Z,11.13
2023-03-22T07:28:27.460Z,11.13
2023-03-22T07:31:06.063Z,11.27
2023-03-22T07:33:46.532Z,11.25
2023-03-22T07:36:15.452Z,11.21
2023-03-22T07:38:43.648Z,11.42
2023-03-22T07:41:17.290Z,11.52
2023-03-22T07:44:17.417Z,11.56
2023-03-22T07:46:53.783Z,11.75
2023-03-22T07:49:27.543Z,11.66
2023-03-22T07:52:04.756Z,11.64
2023-03-22T07:54:34.486Z,11.58
2023-03-22T07:57:05.398Z,11.33
2023-03-22T07:59:39.894Z,11.18
2023-03-22T08:02:11.025Z,11.12
2023-03-22T08:04:49.574Z,11.12
2023-03-22T08:07:27.082Z,11.34
2023-03-22T08:09:55.369Z,11.32
2023-03-22T08:12:23.618Z,11.53
2023-03-22T08:15:01.568Z,11.69
2023-03-22T08:17:30.551Z,11.74
2023-03-22T08:20:00.498Z,11.37
2023-03-22T08:22:44.429Z,11.33
2023-03-22T08:25:27.921Z,11.45
2023-03-22T08:28:01.812Z,11.32
2023-03-22T08:30:29.977Z,11.35
2023-03-22T08:32:58.632Z,11.29
2023-03-22T08:35:28.498Z,11.17
2023-03-22T08:37:56.954Z,11.60
2023-03-22T08:40:31.881Z,11.33
2023-03-22T08:43:02.857Z,11.44
2023-03-22T08:45:31.904Z,11.26
2023-03-22T08:48:08.178Z,11.56
2023-03-22T08:50:55.730Z,11.68
2023-03-22T08:53:31.566Z,11.81
2023-03-22T08:56:20.090Z,11.87
2023-03-22T08:59:02.241Z,11.98
2023-03-22T09:01:38.710Z,11.79
2023-03-22T09:04:10.735Z,11.82
2023-03-22T09:06:42.920Z,11.99
2023-03-22T09:09:12.979Z,12.11
2023-03-22T09:11:43.150Z,11.82
2023-03-22T09:14:11.592Z,11.86
2023-03-22T09:16:39.966Z,11.56
2023-03-22T09:19:08.172Z,11.40
2023-03-22T09:21:36.376Z,11.49
2023-03-22T09:24:13.662Z,11.58
2023-03-22T09:26:46.550Z,11.62
2023-03-22T09:29:17.392Z,11.70
2023-03-22T09:31:48.703Z,11.40
2023-03-22T09:34:19.971Z,11.37
2023-03-22T09:36:48.444Z,11.56
2023-03-22T09:39:22.610Z,11.74
2023-03-22T09:41:57.039Z,11.39
2023-03-22T09:44:31.332Z,11.55
2023-03-22T09:47:04.003Z,11.67
2023-03-22T09:49:52.254Z,11.57
2023-03-22T09:52:21.675Z,11.74
2023-03-22T09:54:53.035Z,11.80
2023-03-22T09:57:29.907Z,11.77
2023-03-22T10:00:11.610Z,12.00
2023-03-22T10:02:55.891Z,11.99
2023-03-22T10:05:32.649Z,12.35
2023-03-22T10:08:30.504Z,12.03
2023-03-22T10:11:01.325Z,12.09
2023-03-22T10:13:39.444Z,12.05
2023-03-22T10:16:13.192Z,12.23
2023-03-22T10:18:48.046Z,12.16
2023-03-22T10:21:18.937Z,12.32
2023-03-22T10:23:53.258Z,12.09
2023-03-22T10:26:29.421Z,12.10
2023-03-22T10:29:03.977Z,12.17
2023-03-22T10:31:34.969Z,11.84
2023-03-22T10:34:08.005Z,11.86
2023-03-22T10:36:39.756Z,11.64
2023-03-22T10:39:17.514Z,11.62
2023-03-22T10:41:49.025Z,11.74
2023-03-22T10:44:20.460Z,11.84
2023-03-22T10:46:52.147Z,11.98
2023-03-22T10:49:27.892Z,11.95
2023-03-22T10:52:01.326Z,12.19
2023-03-22T10:54:30.041Z,11.95
2023-03-22T10:56:59.722Z,12.17
2023-03-22T10:59:48.845Z,12.50
2023-03-22T11:02:23.756Z,12.72
2023-03-22T11:04:56.414Z,12.31
2023-03-22T11:07:33.106Z,12.31
2023-03-22T11:10:21.624Z,12.33
2023-03-22T11:12:54.116Z,12.11
2023-03-22T11:15:28.137Z,12.19
2023-03-22T11:18:02.571Z,12.27
2023-03-22T11:20:31.289Z,12.34
2023-03-22T11:23:05.336Z,12.40
2023-03-22T11:25:38.635Z,12.35
2023-03-22T11:28:19.307Z,12.44
2023-03-22T11:31:07.493Z,12.50
2023-03-22T11:33:37.275Z,12.59
2023-03-22T11:36:16.987Z,12.84
2023-03-22T11:38:47.249Z,12.70
2023-03-22T11:41:24.903Z,12.99
2023-03-22T11:43:57.646Z,12.73
2023-03-22T11:46:26.681Z,12.82
2023-03-22T11:49:01.299Z,12.79
2023-03-22T11:51:33.373Z,12.66
2023-03-22T11:54:10.114Z,12.83
2023-03-22T11:56:44.525Z,13.00
2023-03-22T11:59:23.038Z,13.10
2023-03-22T12:01:58.589Z,13.09
2023-03-22T12:04:30.742Z,13.40
2023-03-22T12:07:03.677Z,13.64
2023-03-22T12:09:42.558Z,13.26
2023-03-22T12:12:17.798Z,13.17
2023-03-22T12:14:55.435Z,13.08
2023-03-22T12:17:33.322Z,13.33
2023-03-22T12:20:13.397Z,13.20
2023-03-22T12:22:47.686Z,13.10
2023-03-22T12:25:19.193Z,13.22
2023-03-22T12:27:54.100Z,13.40
2023-03-22T12:30:27.715Z,13.43
2023-03-22T12:33:02.602Z,13.27
2023-03-22T12:35:35.136Z,13.24
2023-03-22T12:38:11.531Z,13.05
2023-03-22T12:40:42.765Z,13.03
2023-03-22T12:43:18.759Z,12.92
2023-03-22T12:45:54.424Z,12.97
2023-03-22T12:48:33.954Z,12.97
2023-03-22T12:51:07.416Z,12.95
2023-03-22T12:53:42.604Z,13.04
2023-03-22T12:56:15.668Z,13.21
2023-03-22T12:58:47.087Z,13.31
2023-03-22T13:01:29.391Z,13.49
2023-03-22T13:03:59.416Z,13.20
2023-03-22T13:06:35.373Z,13.35
2023-03-22T13:09:17.918Z,13.60
2023-03-22T13:11:48.725Z,13.41
2023-03-22T13:14:57.680Z,13.24
2023-03-22T13:17:46.858Z,13.53
2023-03-22T13:20:34.162Z,13.47
2023-03-22T13:23:11.849Z,13.55
2023-03-22T13:25:58.974Z,13.38
2023-03-22T13:28:29.471Z,13.54
2023-03-22T13:30:59.796Z,13.41
2023-03-22T13:33:31.740Z,13.35
2023-03-22T13:36:07.254Z,13.39
2023-03-22T13:38:41.022Z,13.29
2023-03-22T13:41:21.937Z,13.16
2023-03-22T13:43:52.912Z,13.14
2023-03-22T13:46:46.450Z,13.23
2023-03-22T13:49:46.332Z,13.23
2023-03-22T13:52:36.772Z,12.98
2023-03-22T13:55:16.877Z,13.01
2023-03-22T13:57:58.818Z,13.22
2023-03-22T14:00:49.437Z,13.04
2023-03-22T14:03:27.165Z,13.07
2023-03-22T14:06:11.969Z,12.95
2023-03-22T14:08:44.386Z,13.24
2023-03-22T14:11:24.749Z,13.56
2023-03-22T14:14:00.303Z,13.25
2023-03-22T14:16:41.163Z,13.53
2023-03-22T14:19:16.897Z,13.59
